»·PEaware :: N142LE L52-L88

N142LE :: L52-L88

FLIGHT INFORMATION

Flight Status: Arrived
Operator: Privately registered:
United States
More flights under this callsign
Pilot: Pierre François G. (17817)
Aircraft: Unknown
(P28U)
More flights by this aircraft type
Origin: L52 Oceano Co
United States
Destination: L88 New Cuyama
United States
More flights between these airports :: More routes between these airports
Route:
File this flight plan on PilotEdge
Remarks:
Altitude:
(Current/Filed)
5,500ft
Speed:
(Current/Filed)
150kts
Departed: 08-Jan-18 10:09 AM
Arrived: 08-Jan-18 10:40 AM
Distance/Time
Traveled:
47nm/0:31
Distance/Time
To Go:
Arrived

Flight Plot

Page will automatically refresh every two minutes.


Map Options




Map Legend


Flown Route
Filed Route
Departure Airport
Arrival Airport
Navaid (VOR, NDB)
Fix

Horizontal Profiles

Position Reports

Time Latitude Longitude Heading Altitude Ground
Speed
08-Jan-18 09:50 35.103251 -120.624427 214 17ft 0kts
08-Jan-18 09:51 35.103251 -120.624427 214 17ft 0kts
08-Jan-18 09:52 35.103251 -120.624427 214 17ft 0kts
08-Jan-18 09:53 35.103251 -120.624427 214 17ft 0kts
08-Jan-18 09:54 35.103251 -120.624427 214 17ft 0kts
08-Jan-18 09:55 35.103251 -120.624427 214 17ft 0kts
08-Jan-18 09:56 35.103251 -120.624427 214 17ft 0kts
08-Jan-18 09:57 35.103251 -120.624427 214 17ft 0kts
08-Jan-18 09:58 35.103251 -120.624427 214 17ft 0kts
08-Jan-18 09:59 35.103251 -120.624427 214 17ft 0kts
08-Jan-18 10:00 35.103251 -120.624427 214 17ft 0kts
08-Jan-18 10:01 35.103251 -120.624427 214 17ft 0kts
08-Jan-18 10:02 35.103251 -120.624427 214 17ft 0kts
08-Jan-18 10:03 35.103251 -120.624427 214 17ft 0kts
08-Jan-18 10:04 35.103251 -120.624427 214 17ft 0kts
08-Jan-18 10:05 35.103251 -120.624427 214 17ft 0kts
08-Jan-18 10:06 35.103251 -120.624427 214 17ft 0kts
08-Jan-18 10:07 35.103251 -120.624427 214 17ft 0kts
08-Jan-18 10:08 35.103251 -120.624427 214 17ft 0kts
08-Jan-18 10:09 35.103410 -120.624963 301 17ft 0kts
08-Jan-18 10:10 35.103500 -120.625129 300 17ft 0kts
08-Jan-18 10:11 35.103500 -120.625129 300 17ft 0kts
08-Jan-18 10:12 35.103525 -120.625243 270 17ft 0kts
08-Jan-18 10:13 35.103525 -120.625243 270 17ft 0kts
08-Jan-18 10:14 35.103189 -120.625402 145 17ft 8kts
08-Jan-18 10:15 35.093041 -120.608105 126 937ft 74kts
08-Jan-18 10:16 35.099465 -120.585101 54 2534ft 81kts
08-Jan-18 10:17 35.115759 -120.567399 40 4216ft 81kts
08-Jan-18 10:18 35.132294 -120.546185 55 5266ft 105kts
08-Jan-18 10:19 35.140710 -120.511279 102 5696ft 129kts
08-Jan-18 10:20 35.131065 -120.465448 113 5491ft 138kts
08-Jan-18 10:21 35.114589 -120.422386 120 5397ft 137kts
08-Jan-18 10:22 35.093412 -120.384357 132 5228ft 137kts
08-Jan-18 10:23 35.066550 -120.354456 129 5369ft 114kts
08-Jan-18 10:24 35.048631 -120.324880 122 5499ft 124kts
08-Jan-18 10:25 35.034782 -120.285553 108 5526ft 129kts
08-Jan-18 10:26 35.031660 -120.242209 87 5550ft 131kts
08-Jan-18 10:27 35.046834 -120.202388 51 5562ft 136kts
08-Jan-18 10:28 35.070640 -120.166428 58 5577ft 135kts
08-Jan-18 10:29 35.090443 -120.127783 71 5581ft 134kts
08-Jan-18 10:30 35.092235 -120.084362 114 5566ft 129kts
08-Jan-18 10:31 35.074116 -120.046880 123 5583ft 128kts
08-Jan-18 10:32 35.054423 -120.010703 126 5588ft 128kts
08-Jan-18 10:33 35.032522 -119.976691 125 5594ft 128kts
08-Jan-18 10:34 35.011412 -119.941758 139 5582ft 129kts
08-Jan-18 10:35 34.986033 -119.912301 123 5598ft 127kts
08-Jan-18 10:36 34.969789 -119.873629 114 5603ft 128kts
08-Jan-18 10:37 34.957948 -119.832588 107 5615ft 129kts
08-Jan-18 10:38 34.948715 -119.790358 106 5625ft 129kts
08-Jan-18 10:39 34.941236 -119.748324 103 5524ft 111kts
08-Jan-18 10:40 34.936703 -119.721720 112 4098ft 71kts
08-Jan-18 10:41 34.931911 -119.701171 118 3199ft 63kts
08-Jan-18 10:42 34.923310 -119.682028 114 3051ft 64kts
08-Jan-18 10:43 34.918029 -119.662001 57 2920ft 66kts
08-Jan-18 10:44 34.932724 -119.668318 300 2464ft 69kts
08-Jan-18 10:45 34.940321 -119.686497 295 2206ft 45kts
08-Jan-18 10:46 34.943681 -119.690727 322 2206ft 6kts
08-Jan-18 10:47 34.943931 -119.691297 200 2206ft 0kts
08-Jan-18 10:48 34.943931 -119.691297 200 2206ft 0kts

Navigation Log

Ident Type
Flight plan parsing failed, navigation log unavailable